• Join FlightAware (Why Join?)
  • Login
  • US Flag 
01:22PM EST


 

Airport Tracker/Info


-or-


 

Live Flight TrackerFlight Track Log ✈ DAL1979 ✈ 13-May-2013 ✈ KMCO - KMSP

Flight Track Log - Related Links

Times and Time Zones

All times are in EDT time to prevent confusion due to time zone crossing. See the DAL1979 flight status page for this flight to view local times or setup timezone preferences in your user account.

Time Position Orientation Groundspeed Altitude Reporting Facility
EDT Latitude Longitude Course Direction KTS MPH feet Rate Location/Type
03:55PM 28.4333 -81.3000 270° West 205 236 600  Level Orlando TRACON
03:56PM 28.4630 -81.2980 352° North 180 207 1,700 2,100 Climbing FlightAware
03:56PM 28.5000 -81.3000 360° North 216 249 2,700 2,460 Climbing Orlando TRACON
03:57PM 28.5500 -81.3333 330° Northwest 262 302 5,500 2,520 Climbing Orlando TRACON
03:58PM 28.5430 -81.3980 312° West 259 298 7,600 3,060 Climbing FlightAware
03:58PM 28.5333 -81.4167 257° West 261 300 8,300 1,860 Climbing Orlando TRACON
04:01PM 28.7646 -81.5253 270° West  Level Estimated
04:04PM 28.4800 -81.9920 257° West 392 451 18,100  Level FlightAware
04:05PM 28.4960 -82.0830 281° West 397 457 19,500 1,740 Climbing FlightAware
04:05PM 28.5140 -82.1650 284° West 404 465 20,600 1,440 Climbing FlightAware
04:06PM 28.5330 -82.2560 283° West 409 471 21,600 1,440 Climbing FlightAware
04:07PM 28.5620 -82.3360 292° West 414 476 22,700 1,500 Climbing FlightAware
04:07PM 28.6280 -82.4060 317° Northwest 432 497 23,800 900 Climbing FlightAware
04:08PM 28.6950 -82.4510 329° Northwest 434 499 24,000 120 Climbing FlightAware
04:09PM 28.7650 -82.4960 331° Northwest 436 502 24,000  Level FlightAware
04:10PM 28.8640 -82.5600 330° Northwest 430 495 24,000  Level FlightAware
04:11PM 28.9610 -82.6250 330° Northwest 440 506 24,000  Level FlightAware
04:11PM 29.0410 -82.6780 330° Northwest 443 510 24,000  Level FlightAware
04:12PM 29.1090 -82.7220 331° Northwest 434 499 24,000  Level FlightAware
04:13PM 29.2290 -82.8020 330° Northwest 440 506 24,000  Level FlightAware
04:14PM 29.3010 -82.8500 330° Northwest 431 496 24,000  Level FlightAware
04:15PM 29.3590 -82.8880 330° Northwest 431 496 24,000  Level FlightAware
04:15PM 29.4180 -82.9270 330° Northwest 431 496 24,000  Level FlightAware
04:16PM 29.4920 -82.9760 330° Northwest 431 496 24,000  Level FlightAware
04:17PM 29.5500 -83.0150 330° Northwest 431 496 24,000  Level FlightAware
04:17PM 29.6090 -83.0540 330° Northwest 431 496 24,000  Level FlightAware
04:19PM 29.7297 -83.1197 330° Northwest 382 440 24,100 600 Climbing Jacksonville Center
04:20PM 29.8236 -83.1775 332° Northwest 382 440 25,300 900 Climbing Jacksonville Center
04:21PM 29.9342 -83.2450 332° Northwest 397 457 26,000 300 Climbing Jacksonville Center
04:22PM 30.0319 -83.3028 333° Northwest 412 474 26,000  Level Jacksonville Center
04:23PM 30.1361 -83.3658 332° Northwest 418 481 26,000  Level Jacksonville Center
04:24PM 30.2425 -83.4311 332° Northwest 423 487 26,000  Level Jacksonville Center
04:25PM 30.3486 -83.4944 333° Northwest 428 493 26,000  Level Jacksonville Center
04:26PM 30.4486 -83.5553 332° Northwest 423 487 26,000 -60 Level Jacksonville Center
04:27PM 30.5422 -83.6139 332° Northwest 400 460 25,900 -660 Descending Jacksonville Center
04:28PM 30.6442 -83.6772 332° Northwest 387 445 24,700 -960 Descending Jacksonville Center
04:29PM 30.7481 -83.7411 332° Northwest 392 451 24,000 -360 Descending Jacksonville Center
04:30PM 30.8394 -83.7950 333° Northwest 399 459 24,000  Level Jacksonville Center
04:31PM 30.9475 -83.8664 330° Northwest 423 487 24,000  Level Jacksonville Center
04:32PM 31.0556 -83.9331 332° Northwest 433 498 24,000  Level Jacksonville Center
04:34PM 31.2875 -84.0778 332° Northwest 427 491 24,000  Level Atlanta Center
04:35PM 31.3917 -84.1411 333° Northwest 433 498 24,000  Level Atlanta Center
04:36PM 31.5003 -84.2094 332° Northwest 433 498 24,000  Level Atlanta Center
04:37PM 31.6025 -84.2753 331° Northwest 433 498 24,000  Level Atlanta Center
04:38PM 31.6878 -84.3292 332° Northwest 433 498 24,000  Level Atlanta Center
04:39PM 31.8044 -84.4006 333° Northwest 433 498 24,000  Level Atlanta Center
04:40PM 31.9086 -84.4719 330° Northwest 433 498 24,000  Level Atlanta Center
04:41PM 32.0150 -84.5361 333° Northwest 433 498 24,000  Level Atlanta Center
04:42PM 32.1189 -84.6028 331° Northwest 428 493 24,000  Level Atlanta Center
04:43PM 32.2250 -84.6697 332° Northwest 428 493 24,000  Level Atlanta Center
04:44PM 32.3269 -84.7394 330° Northwest 428 493 24,000  Level Atlanta Center
04:50PM 32.9970 -85.1650 330° Northwest 426 490 24,000  Level FlightAware
04:51PM 33.0560 -85.2040 331° Northwest 426 490 24,000  Level FlightAware
04:51PM 33.1580 -85.2700 332° Northwest 425 489 24,000  Level FlightAware
04:52PM 33.2120 -85.3060 331° Northwest 425 489 24,000  Level FlightAware
04:53PM 33.2760 -85.3490 331° Northwest 425 489 24,000  Level FlightAware
04:53PM 33.3490 -85.3970 331° Northwest 425 489 24,000  Level FlightAware
04:54PM 33.4070 -85.4360 331° Northwest 425 489 24,000  Level FlightAware
04:55PM 33.4660 -85.4750 331° Northwest 425 489 24,000 2,100 Level FlightAware
04:56PM 33.5860 -85.5540 331° Northwest 425 489 27,000 2,400 Climbing FlightAware
04:56PM 33.6480 -85.5970 330° Northwest 422 486 27,400 300 Climbing FlightAware
04:57PM 33.7060 -85.6370 330° Northwest 422 486 27,400  Level FlightAware
04:58PM 33.7630 -85.6770 330° Northwest 422 486 27,400  Level FlightAware
04:58PM 33.8350 -85.7270 330° Northwest 422 486 27,400  Level FlightAware
04:59PM 33.8930 -85.7670 330° Northwest 422 486 27,400 600 Level FlightAware
04:59PM 33.9861 -85.8224 334° Northwest 422 486 28,000 360 Climbing FlightAware ADS-B
05:01PM 34.1086 -85.9050 331° Northwest 422 486 28,000  Level FlightAware ADS-B
05:01PM 34.1645 -85.9429 331° Northwest 421 484 28,000  Level FlightAware ADS-B
05:02PM 34.2332 -85.9895 331° Northwest 421 484 28,000  Level FlightAware ADS-B
05:02PM 34.3025 -86.0366 331° Northwest 420 483 28,000  Level FlightAware ADS-B
05:03PM 34.3543 -86.0717 331° Northwest 420 483 28,000  Level FlightAware ADS-B
05:04PM 34.4088 -86.1088 331° Northwest 419 482 28,000  Level FlightAware ADS-B
05:04PM 34.4613 -86.1445 331° Northwest 418 481 28,000  Level FlightAware ADS-B
05:05PM 34.5162 -86.1821 331° Northwest 417 480 28,000  Level FlightAware ADS-B
05:05PM 34.5703 -86.2190 331° Northwest 416 479 28,000  Level FlightAware ADS-B
05:06PM 34.6210 -86.2538 331° Northwest 416 479 28,000  Level FlightAware ADS-B
05:06PM 34.6737 -86.2902 330° Northwest 417 480 28,000 360 Level FlightAware ADS-B
05:07PM 34.7254 -86.3254 331° Northwest 420 483 28,400 1,080 Climbing FlightAware ADS-B
05:07PM 34.7763 -86.3603 331° Northwest 418 481 29,100 1,380 Climbing FlightAware ADS-B
05:08PM 34.8272 -86.3954 330° Northwest 418 481 29,800 900 Climbing FlightAware ADS-B
05:08PM 34.8780 -86.4302 331° Northwest 420 483 30,000 180 Climbing FlightAware ADS-B
05:09PM 34.9377 -86.4715 330° Northwest 420 483 30,000  Level FlightAware ADS-B
05:09PM 34.9898 -86.5075 330° Northwest 420 483 30,000  Level FlightAware ADS-B
05:10PM 35.0433 -86.5444 331° Northwest 418 481 30,000  Level FlightAware ADS-B
05:10PM 35.0938 -86.5794 330° Northwest 417 480 30,000  Level FlightAware ADS-B
05:11PM 35.1473 -86.6164 331° Northwest 416 479 30,000  Level FlightAware ADS-B
05:11PM 35.2002 -86.6532 330° Northwest 414 476 30,000  Level FlightAware ADS-B
05:12PM 35.2505 -86.6882 330° Northwest 414 476 30,000  Level FlightAware ADS-B
05:12PM 35.3017 -86.7238 330° Northwest 414 476 30,000  Level FlightAware ADS-B
05:13PM 35.3994 -86.7920 330° Northwest 413 475 30,000  Level FlightAware ADS-B
05:15PM 35.6000 -86.9320 330° Northwest 414 476 30,000  Level FlightAware
05:16PM 35.6550 -86.9710 330° Northwest 415 478 30,000  Level FlightAware
05:17PM 35.7570 -87.0430 330° Northwest 416 479 30,000  Level FlightAware
05:18PM 35.8280 -87.0930 330° Northwest 415 478 30,000  Level FlightAware
05:18PM 35.8930 -87.1390 330° Northwest 415 478 30,000  Level FlightAware
05:19PM 35.9500 -87.1790 330° Northwest 415 478 30,000  Level FlightAware
05:20PM 36.0380 -87.2410 330° Northwest 415 478 30,000  Level FlightAware
05:20PM 36.0950 -87.2820 330° Northwest 415 478 30,000  Level FlightAware
05:21PM 36.1510 -87.3220 330° Northwest 415 478 30,000  Level FlightAware
05:22PM 36.2080 -87.3630 330° Northwest 415 478 30,000  Level FlightAware
05:23PM 36.2780 -87.4130 330° Northwest 415 478 30,000  Level FlightAware
05:23PM 36.3350 -87.4540 330° Northwest 415 478 30,000  Level FlightAware
05:24PM 36.3920 -87.4940 331° Northwest 415 478 30,000  Level FlightAware
05:25PM 36.4480 -87.5350 330° Northwest 415 478 30,000  Level FlightAware
05:25PM 36.5050 -87.5750 331° Northwest 415 478 30,000  Level FlightAware
05:26PM 36.5750 -87.6260 330° Northwest 415 478 30,000  Level FlightAware
05:27PM 36.6320 -87.6670 330° Northwest 415 478 30,000  Level FlightAware
05:27PM 36.6880 -87.7080 330° Northwest 415 478 30,000  Level FlightAware
05:28PM 36.7450 -87.7480 331° Northwest 415 478 30,000  Level FlightAware
05:29PM 36.8010 -87.7890 330° Northwest 415 478 30,000  Level FlightAware
05:30PM 37.0350 -87.9570 330° Northwest 418 481 30,000  Level FlightAware
05:30PM 37.1000 -88.0040 330° Northwest 418 481 30,000  Level FlightAware
05:31PM 37.1680 -88.0540 330° Northwest 417 480 30,000  Level FlightAware
05:32PM 37.2290 -88.0980 330° Northwest 416 479 30,000  Level FlightAware
05:32PM 37.3050 -88.1550 329° Northwest 417 480 30,000  Level FlightAware
05:33PM 37.3830 -88.2120 330° Northwest 417 480 30,000  Level FlightAware
05:34PM 37.4500 -88.2610 330° Northwest 417 480 30,000  Level FlightAware
05:34PM 37.5180 -88.3110 330° Northwest 417 480 30,000  Level FlightAware
05:35PM 37.5900 -88.3650 329° Northwest 417 480 30,000  Level FlightAware
05:36PM 37.6570 -88.4140 330° Northwest 416 479 30,000  Level FlightAware
05:37PM 37.7340 -88.4720 329° Northwest 417 480 30,000  Level FlightAware
05:37PM 37.8010 -88.5210 330° Northwest 418 481 30,000  Level FlightAware
05:38PM 37.8740 -88.5760 329° Northwest 418 481 30,000  Level FlightAware
05:39PM 37.9420 -88.6270 329° Northwest 418 481 30,000  Level FlightAware
05:39PM 38.0090 -88.6770 330° Northwest 418 481 30,000  Level FlightAware
05:40PM 38.0840 -88.7330 330° Northwest 418 481 30,000  Level FlightAware
05:41PM 38.1510 -88.7840 329° Northwest 418 481 30,000  Level FlightAware
05:41PM 38.2190 -88.8360 329° Northwest 419 482 30,000  Level FlightAware
05:42PM 38.2790 -88.8810 330° Northwest 418 481 30,000  Level FlightAware
05:43PM 38.3470 -88.9330 329° Northwest 418 481 30,000  Level FlightAware
05:44PM 38.4490 -89.0100 329° Northwest 417 480 30,000  Level FlightAware
05:44PM 38.5100 -89.0570 329° Northwest 416 479 30,000  Level FlightAware
05:45PM 38.5870 -89.1160 329° Northwest 415 478 30,000  Level FlightAware
05:46PM 38.6680 -89.1790 329° Northwest 415 478 30,000  Level FlightAware
05:47PM 38.7370 -89.2340 328° Northwest 415 478 30,000  Level FlightAware
05:48PM 38.8220 -89.2970 330° Northwest 415 478 30,000  Level FlightAware
05:48PM 38.8970 -89.3550 329° Northwest 416 479 30,000  Level FlightAware
05:49PM 38.9740 -89.4150 329° Northwest 417 480 30,000  Level FlightAware
05:50PM 39.0290 -89.4600 328° Northwest 417 480 30,000  Level FlightAware
05:51PM 39.1280 -89.5350 330° Northwest 416 479 30,000  Level FlightAware
05:51PM 39.1920 -89.5850 329° Northwest 416 479 30,000  Level FlightAware
05:52PM 39.2470 -89.6280 329° Northwest 417 480 30,000  Level FlightAware
05:53PM 39.3140 -89.6820 328° Northwest 417 480 30,000  Level FlightAware
05:53PM 39.3870 -89.7390 329° Northwest 417 480 30,000  Level FlightAware
05:54PM 39.4720 -89.8060 329° Northwest 417 480 30,000  Level FlightAware
05:55PM 39.5350 -89.8560 329° Northwest 417 480 30,000  Level FlightAware
05:55PM 39.5990 -89.9070 328° Northwest 417 480 30,000  Level FlightAware
05:56PM 39.6750 -89.9670 329° Northwest 417 480 30,000  Level FlightAware
05:57PM 39.7450 -90.0240 328° Northwest 419 482 30,000  Level FlightAware
05:58PM 39.8180 -90.0830 328° Northwest 419 482 30,000  Level FlightAware
05:58PM 39.8800 -90.1330 328° Northwest 419 482 30,000  Level FlightAware
05:59PM 39.9480 -90.1870 329° Northwest 420 483 30,000  Level FlightAware
06:00PM 40.0140 -90.2410 328° Northwest 420 483 30,000  Level FlightAware
06:00PM 40.0700 -90.2870 328° Northwest 420 483 30,000  Level FlightAware
06:01PM 40.1390 -90.3430 328° Northwest 420 483 30,000  Level FlightAware
06:02PM 40.2070 -90.3980 328° Northwest 420 483 30,000  Level FlightAware
06:02PM 40.2730 -90.4520 328° Northwest 421 484 30,000  Level FlightAware
06:03PM 40.3450 -90.5110 328° Northwest 420 483 30,000  Level FlightAware
06:04PM 40.4080 -90.5630 328° Northwest 421 484 30,000  Level FlightAware
06:04PM 40.4890 -90.6300 328° Northwest 421 484 30,000  Level FlightAware
06:05PM 40.5520 -90.6830 327° Northwest 421 484 30,000  Level FlightAware
06:06PM 40.6460 -90.7600 328° Northwest 421 484 30,000  Level FlightAware
06:07PM 40.7200 -90.8220 328° Northwest 421 484 30,000  Level FlightAware
06:07PM 40.7810 -90.8730 328° Northwest 421 484 30,000  Level FlightAware
06:08PM 40.8610 -90.9400 328° Northwest 420 483 30,000  Level FlightAware
06:09PM 40.9120 -90.9830 327° Northwest 419 482 30,000  Level FlightAware
06:09PM 40.9850 -91.0450 327° Northwest 418 481 30,000  Level FlightAware
06:10PM 41.0620 -91.1090 328° Northwest 419 482 30,000  Level FlightAware
06:11PM 41.1250 -91.1630 327° Northwest 419 482 30,000  Level FlightAware
06:12PM 41.2020 -91.2290 327° Northwest 420 483 30,000  Level FlightAware
06:12PM 41.2590 -91.2770 328° Northwest 421 484 30,000  Level FlightAware
06:13PM 41.3410 -91.3470 327° Northwest 420 483 30,000  Level FlightAware
06:14PM 41.3990 -91.3960 328° Northwest 420 483 30,000  Level FlightAware
06:14PM 41.4730 -91.4600 327° Northwest 421 484 30,000  Level FlightAware
06:15PM 41.5450 -91.5220 327° Northwest 421 484 30,000  Level FlightAware
06:16PM 41.6130 -91.5810 327° Northwest 422 486 30,000  Level FlightAware
06:16PM 41.6770 -91.6360 327° Northwest 422 486 30,000  Level FlightAware
06:17PM 41.7520 -91.7020 327° Northwest 421 484 30,000  Level FlightAware
06:18PM 41.8160 -91.7570 327° Northwest 421 484 30,000  Level FlightAware
06:19PM 41.8880 -91.8200 327° Northwest 422 486 30,000  Level FlightAware
06:19PM 41.9540 -91.8780 327° Northwest 421 484 30,000  Level FlightAware
06:20PM 42.0290 -91.9440 327° Northwest 421 484 30,000  Level FlightAware
06:21PM 42.0950 -92.0010 327° Northwest 421 484 30,000  Level FlightAware
06:23PM 42.2830 -92.1670 327° Northwest 421 484 30,000  Level FlightAware
06:23PM 42.3460 -92.2240 326° Northwest 420 483 30,000  Level FlightAware
06:24PM 42.4130 -92.2840 327° Northwest 420 483 30,000  Level FlightAware
06:25PM 42.4870 -92.3490 327° Northwest 419 482 30,000  Level FlightAware
06:25PM 42.5500 -92.4070 326° Northwest 419 482 30,000  Level FlightAware
06:26PM 42.6150 -92.4670 326° Northwest 418 481 30,000  Level FlightAware
06:27PM 42.6860 -92.5300 327° Northwest 418 481 30,000  Level FlightAware
06:27PM 42.7520 -92.5910 326° Northwest 419 482 30,000  Level FlightAware
06:28PM 42.8150 -92.6500 326° Northwest 420 483 30,000  Level FlightAware
06:29PM 42.8890 -92.7190 326° Northwest 422 486 30,000  Level FlightAware
06:30PM 42.9530 -92.7790 326° Northwest 423 487 30,000  Level FlightAware
06:30PM 43.0180 -92.8410 325° Northwest 424 488 30,000  Level FlightAware
06:31PM 43.0890 -92.9070 326° Northwest 424 488 30,000  Level FlightAware
06:32PM 43.1550 -92.9690 326° Northwest 424 488 30,000  Level FlightAware
06:32PM 43.2300 -93.0390 326° Northwest 424 488 30,000 -300 Level FlightAware
06:33PM 43.2940 -93.1000 325° Northwest 425 489 29,600 -1,740 Descending FlightAware
06:34PM 43.3640 -93.1670 325° Northwest 423 487 27,600 -2,760 Descending FlightAware
06:35PM 43.4390 -93.2380 326° Northwest 411 473 25,500 -2,640 Descending FlightAware
06:35PM 43.5020 -93.2880 330° Northwest 397 457 23,900 -2,220 Descending FlightAware
06:36PM 43.5990 -93.2940 357° North 378 435 22,000 -2,040 Descending FlightAware
06:37PM 43.6680 -93.2870 North 366 421 20,700 -2,220 Descending FlightAware
06:38PM 43.7470 -93.2780 North 376 433 18,900 -2,400 Descending FlightAware
06:38PM 43.8150 -93.2710 North 372 428 17,300 -2,520 Descending FlightAware
06:39PM 43.8900 -93.2640 North 364 419 15,400 -2,640 Descending FlightAware
06:40PM 43.9590 -93.2570 North 359 413 13,600 -2,580 Descending FlightAware
06:40PM 44.0230 -93.2500 North 353 406 12,000 -2,340 Descending FlightAware
06:41PM 44.0990 -93.2430 North 350 403 10,300 -1,380 Descending FlightAware
06:42PM 44.1630 -93.2360 North 349 402 10,100 -180 Descending FlightAware
06:42PM 44.2350 -93.2280 North 347 399 10,100  Level FlightAware
06:43PM 44.2980 -93.2220 North 347 399 10,100  Level FlightAware
06:44PM 44.3620 -93.2150 North 346 398 10,100  Level FlightAware
06:45PM 44.4370 -93.2070 North 347 399 10,100  Level FlightAware
06:45PM 44.4990 -93.2010 North 346 398 10,100  Level FlightAware
06:46PM 44.5720 -93.1930 North 346 398 10,100  Level FlightAware
06:47PM 44.6330 -93.2000 355° North 307 353 10,100 -300 Level FlightAware
06:47PM 44.6790 -93.2270 337° Northwest 252 290 9,700 -1,140 Descending FlightAware
06:48PM 44.7100 -93.2470 335° Northwest 249 287 8,800 -1,620 Descending FlightAware
06:48PM 44.7430 -93.2680 336° Northwest 259 298 8,100 -780 Descending FlightAware
06:49PM 44.7720 -93.2850 337° Northwest 262 302 8,100  Level FlightAware
06:49PM 44.8020 -93.3100 329° Northwest 247 284 8,100 -600 Level FlightAware
06:50PM 44.8210 -93.3490 304° West 238 274 7,500 -1,680 Descending FlightAware
06:50PM 44.8380 -93.3800 308° West 243 280 6,600 -1,560 Descending FlightAware
06:51PM 44.8600 -93.4170 310° West 241 277 6,100 -600 Descending FlightAware
06:51PM 44.8770 -93.4440 312° West 230 265 6,100  Level FlightAware
06:52PM 44.9040 -93.4720 324° Northwest 245 282 6,100 -720 Level FlightAware
06:52PM 44.9380 -93.4580 16° North 271 312 5,400 -1,380 Descending FlightAware
06:52PM 44.9460 -93.4440 51° Northeast 265 305 5,200 -1,200 Descending FlightAware
06:52PM 44.9500 -93.4240 74° East 245 282 4,900 -1,500 Descending FlightAware
06:53PM 44.9350 -93.3880 120° Southeast 195 224 4,100 -1,440 Descending FlightAware
06:53PM 44.9240 -93.3600 119° Southeast 176 203 3,600 -1,800 Descending FlightAware
06:54PM 44.9110 -93.3320 123° Southeast 169 194 2,500 -1,560 Descending FlightAware
06:54PM 44.9020 -93.3110 121° Southeast 142 163 2,200 -660 Descending FlightAware
06:55PM 44.8920 -93.2870 120° Southeast 144 166 1,900 -720 Descending FlightAware
06:55PM 44.8820 -93.2620 119° Southeast 139 160 1,500 -780 Descending FlightAware
06:56PM 44.8740 -93.2430 121° Southeast 146 168 1,200 -720 Descending FlightAware